createdAt,value
2018-09-09T00:00:55.602Z,1013.97
2018-09-09T00:01:55.623Z,1013.95
2018-09-09T00:02:55.638Z,1014.00
2018-09-09T00:03:55.660Z,1013.95
2018-09-09T00:04:55.680Z,1013.98
2018-09-09T00:05:55.708Z,1013.95
2018-09-09T00:06:55.717Z,1013.99
2018-09-09T00:07:55.737Z,1014.06
2018-09-09T00:08:55.753Z,1014.10
2018-09-09T00:09:55.775Z,1014.15
2018-09-09T00:10:55.791Z,1014.05
2018-09-09T00:11:55.818Z,1014.00
2018-09-09T00:12:55.830Z,1013.91
2018-09-09T00:13:55.855Z,1013.94
2018-09-09T00:14:55.877Z,1014.01
2018-09-09T00:15:55.888Z,1014.07
2018-09-09T00:16:55.910Z,1014.09
2018-09-09T00:17:55.922Z,1014.10
2018-09-09T00:18:55.956Z,1014.06
2018-09-09T00:19:55.958Z,1014.03
2018-09-09T00:20:55.982Z,1013.98
2018-09-09T00:21:56.003Z,1014.02
2018-09-09T00:22:56.020Z,1014.03
2018-09-09T00:23:56.036Z,1014.03
2018-09-09T00:24:56.057Z,1013.97
2018-09-09T00:25:56.076Z,1013.90
2018-09-09T00:26:56.094Z,1013.95
2018-09-09T00:27:56.108Z,1013.99
2018-09-09T00:28:56.133Z,1013.97
2018-09-09T00:29:56.159Z,1013.96
2018-09-09T00:30:56.170Z,1013.98
2018-09-09T00:31:56.190Z,1013.94
2018-09-09T00:32:56.214Z,1013.92
2018-09-09T00:33:56.224Z,1013.96
2018-09-09T00:34:56.243Z,1013.95
2018-09-09T00:35:56.262Z,1013.95
2018-09-09T00:36:56.281Z,1013.99
2018-09-09T00:37:56.298Z,1013.97
2018-09-09T00:38:56.317Z,1014.00
2018-09-09T00:39:56.337Z,1013.95
2018-09-09T00:40:56.356Z,1013.96
2018-09-09T00:41:56.372Z,1013.93
2018-09-09T00:42:56.396Z,1013.92
2018-09-09T00:43:56.410Z,1013.88
2018-09-09T00:44:56.433Z,1013.88
2018-09-09T00:45:56.450Z,1013.83
2018-09-09T00:46:56.475Z,1013.78
2018-09-09T00:47:56.495Z,1013.76
2018-09-09T00:48:56.509Z,1013.70
2018-09-09T00:49:56.523Z,1013.69
2018-09-09T00:50:56.544Z,1013.68
2018-09-09T00:51:56.562Z,1013.69
2018-09-09T00:52:56.582Z,1013.69
2018-09-09T00:53:56.602Z,1013.71
2018-09-09T00:54:56.620Z,1013.77
2018-09-09T00:55:56.646Z,1013.92
2018-09-09T00:56:56.656Z,1013.95
2018-09-09T00:57:56.675Z,1013.96
2018-09-09T00:58:56.706Z,1013.93
2018-09-09T00:59:56.714Z,1013.95
2018-09-09T01:00:56.736Z,1013.98
2018-09-09T01:01:56.752Z,1014.01
2018-09-09T01:02:56.785Z,1014.01
2018-09-09T01:03:56.796Z,1013.99
2018-09-09T01:04:56.808Z,1014.04
2018-09-09T01:05:56.824Z,1014.06
2018-09-09T01:06:56.851Z,1014.06
2018-09-09T01:07:56.867Z,1014.10
2018-09-09T01:08:56.884Z,1014.09
2018-09-09T01:09:56.901Z,1014.10
2018-09-09T01:10:56.927Z,1014.17
2018-09-09T01:11:56.937Z,1014.19
2018-09-09T01:12:56.959Z,1014.17
2018-09-09T01:13:56.979Z,1014.18
2018-09-09T01:14:56.995Z,1014.22
2018-09-09T01:15:57.013Z,1014.18
2018-09-09T01:16:57.035Z,1014.21
2018-09-09T01:17:57.054Z,1014.15
2018-09-09T01:18:57.071Z,1014.14
2018-09-09T01:19:57.090Z,1014.11
2018-09-09T01:20:57.112Z,1014.15
2018-09-09T01:21:57.127Z,1014.15
2018-09-09T01:22:57.152Z,1014.10
2018-09-09T01:23:57.161Z,1014.11
2018-09-09T01:24:57.180Z,1014.12
2018-09-09T01:25:57.199Z,1014.09
2018-09-09T01:26:57.225Z,1014.13
2018-09-09T01:27:57.242Z,1014.15
2018-09-09T01:28:57.262Z,1014.18
2018-09-09T01:29:57.278Z,1014.19
2018-09-09T01:30:57.305Z,1014.20
2018-09-09T01:31:57.313Z,1014.18
2018-09-09T01:32:57.332Z,1014.17
2018-09-09T01:33:57.356Z,1014.11
2018-09-09T01:34:57.377Z,1014.15
2018-09-09T01:35:57.400Z,1014.14
2018-09-09T01:36:57.414Z,1014.07
2018-09-09T01:37:57.428Z,1014.01
2018-09-09T01:38:57.448Z,1014.00
2018-09-09T01:39:57.470Z,1013.98
2018-09-09T01:40:57.497Z,1013.98
2018-09-09T01:41:57.509Z,1014.03
2018-09-09T01:42:57.524Z,1014.02
2018-09-09T01:43:57.544Z,1014.02
2018-09-09T01:44:57.561Z,1014.04
2018-09-09T01:45:57.589Z,1014.05
2018-09-09T01:46:57.602Z,1013.97
2018-09-09T01:47:57.623Z,1013.99
2018-09-09T01:48:57.647Z,1013.96
2018-09-09T01:49:57.659Z,1013.91
2018-09-09T01:50:57.675Z,1013.96
2018-09-09T01:51:57.697Z,1013.93
2018-09-09T01:52:57.715Z,1013.92
2018-09-09T01:53:57.734Z,1013.97
2018-09-09T01:54:57.748Z,1013.92
2018-09-09T01:55:57.774Z,1013.98
2018-09-09T01:56:57.786Z,1013.95
2018-09-09T01:57:57.806Z,1013.96
2018-09-09T01:58:57.829Z,1013.95
2018-09-09T01:59:57.845Z,1013.95
2018-09-09T02:00:57.861Z,1013.94
2018-09-09T02:01:57.885Z,1013.97
2018-09-09T02:02:57.903Z,1014.04
2018-09-09T02:03:57.918Z,1014.03
2018-09-09T02:04:57.940Z,1014.08
2018-09-09T02:05:57.959Z,1014.10
2018-09-09T02:06:57.976Z,1014.15
2018-09-09T02:07:57.995Z,1014.09
2018-09-09T02:08:58.011Z,1014.05
2018-09-09T02:09:58.033Z,1014.14
2018-09-09T02:10:58.051Z,1014.14
2018-09-09T02:11:58.072Z,1014.17
2018-09-09T02:12:58.111Z,1014.17
2018-09-09T02:13:58.106Z,1014.17
2018-09-09T02:14:58.127Z,1014.15
2018-09-09T02:15:58.145Z,1014.13
2018-09-09T02:16:58.160Z,1014.11
2018-09-09T02:17:58.183Z,1014.12
2018-09-09T02:18:58.201Z,1014.12
2018-09-09T02:19:58.220Z,1014.13
2018-09-09T02:20:58.236Z,1014.13
2018-09-09T02:21:58.260Z,1014.19
2018-09-09T02:22:58.274Z,1014.20
2018-09-09T02:23:58.291Z,1014.17
2018-09-09T02:24:58.316Z,1014.13
2018-09-09T02:25:58.364Z,1014.12
2018-09-09T02:26:58.354Z,1014.11
2018-09-09T02:27:58.371Z,1014.08
2018-09-09T02:28:58.387Z,1014.09
2018-09-09T02:29:58.404Z,1014.11
2018-09-09T02:30:58.426Z,1014.12
2018-09-09T02:31:58.508Z,1014.07
2018-09-09T02:32:58.465Z,1014.07
2018-09-09T02:33:58.487Z,1014.06
2018-09-09T02:34:58.508Z,1014.05
2018-09-09T02:35:58.519Z,1014.06
2018-09-09T02:36:58.543Z,1014.01
2018-09-09T02:37:58.571Z,1014.00
2018-09-09T02:38:58.573Z,1013.94
2018-09-09T02:39:58.595Z,1013.96
2018-09-09T02:40:58.614Z,1014.00
2018-09-09T02:41:58.631Z,1013.99
2018-09-09T02:42:58.653Z,1014.08
2018-09-09T02:43:58.675Z,1014.10
2018-09-09T02:44:58.688Z,1014.14
2018-09-09T02:45:58.711Z,1014.13
2018-09-09T02:46:58.731Z,1014.12
2018-09-09T02:47:58.750Z,1014.11
2018-09-09T02:48:58.766Z,1014.09
2018-09-09T02:49:58.783Z,1014.10
2018-09-09T02:50:58.801Z,1014.14
2018-09-09T02:51:58.821Z,1014.13
2018-09-09T02:52:58.838Z,1014.13
2018-09-09T02:53:58.858Z,1014.11
2018-09-09T02:54:58.883Z,1014.18
2018-09-09T02:55:58.892Z,1014.14
2018-09-09T02:56:58.911Z,1014.09
2018-09-09T02:57:58.930Z,1014.12
2018-09-09T02:58:58.952Z,1014.08
2018-09-09T02:59:58.968Z,1014.10
2018-09-09T03:00:58.986Z,1014.10
2018-09-09T03:01:59.003Z,1014.04
2018-09-09T03:02:59.031Z,1013.94
2018-09-09T03:03:59.045Z,1013.92
2018-09-09T03:04:59.065Z,1013.96
2018-09-09T03:05:59.092Z,1014.02
2018-09-09T03:06:59.104Z,1014.03
2018-09-09T03:07:59.118Z,1014.06
2018-09-09T03:38:14.886Z,1013.85
2018-09-09T03:39:14.873Z,1013.84
2018-09-09T03:41:06.784Z,1013.83
2018-09-09T03:42:06.788Z,1013.82
2018-09-09T03:43:58.712Z,1013.74
2018-09-09T03:44:58.705Z,1013.73
2018-09-09T03:46:50.643Z,1013.75
2018-09-09T03:47:50.625Z,1013.75
2018-09-09T03:49:42.531Z,1013.79
2018-09-09T03:50:42.541Z,1013.80
2018-09-09T03:52:34.476Z,1013.80
2018-09-09T03:53:34.462Z,1013.74
2018-09-09T03:55:26.383Z,1013.71
2018-09-09T03:56:26.391Z,1013.74
2018-09-09T03:58:18.322Z,1013.78
2018-09-09T03:59:18.321Z,1013.78
2018-09-09T04:01:10.231Z,1013.80
2018-09-09T04:02:10.251Z,1013.83
2018-09-09T04:04:02.179Z,1013.80
2018-09-09T04:05:02.170Z,1013.84
2018-09-09T04:06:54.114Z,1013.93
2018-09-09T04:07:54.102Z,1013.99
2018-09-09T04:09:46.042Z,1014.03
2018-09-09T04:10:46.030Z,1014.04
2018-09-09T04:12:37.971Z,1014.07
2018-09-09T04:13:37.957Z,1014.07
2018-09-09T04:15:29.879Z,1014.08
2018-09-09T04:16:29.887Z,1014.07
2018-09-09T04:18:21.824Z,1014.06
2018-09-09T04:19:21.810Z,1014.07
2018-09-09T04:21:13.727Z,1014.05
2018-09-09T04:22:13.739Z,1014.11
2018-09-09T04:24:05.676Z,1014.09
2018-09-09T04:25:05.663Z,1014.15
2018-09-09T04:26:57.589Z,1014.18
2018-09-09T04:27:57.592Z,1014.18
2018-09-09T04:29:49.542Z,1014.13
2018-09-09T04:30:49.596Z,1014.17
2018-09-09T04:32:41.464Z,1014.21
2018-09-09T04:33:41.454Z,1014.17
2018-09-09T04:35:33.371Z,1014.21
2018-09-09T04:36:33.386Z,1014.15
2018-09-09T04:38:25.328Z,1014.20
2018-09-09T04:39:25.325Z,1014.22
2018-09-09T04:41:17.236Z,1014.18
2018-09-09T04:42:17.250Z,1014.12
2018-09-09T04:44:09.187Z,1014.08
2018-09-09T04:45:09.174Z,1014.17
2018-09-09T04:47:01.102Z,1014.20
2018-09-09T04:48:01.107Z,1014.21
2018-09-09T04:49:53.048Z,1014.21
2018-09-09T04:50:53.045Z,1014.18
2018-09-09T04:52:44.978Z,1014.16
2018-09-09T04:53:44.967Z,1014.13
2018-09-09T04:55:36.891Z,1014.16
2018-09-09T04:56:36.899Z,1014.17
2018-09-09T04:58:28.835Z,1014.18
2018-09-09T04:59:28.827Z,1014.15
2018-09-09T05:01:20.794Z,1014.12
2018-09-09T05:02:20.765Z,1014.11
2018-09-09T05:04:12.704Z,1014.11
2018-09-09T05:05:12.692Z,1014.12
2018-09-09T05:07:04.614Z,1014.09
2018-09-09T05:08:04.627Z,1014.08
2018-09-09T05:09:56.561Z,1014.20
2018-09-09T05:10:56.554Z,1014.23
2018-09-09T05:12:48.501Z,1014.25
2018-09-09T05:13:48.483Z,1014.29
2018-09-09T05:15:40.403Z,1014.43
2018-09-09T05:16:40.414Z,1014.46
2018-09-09T05:18:32.345Z,1014.52
2018-09-09T05:19:32.341Z,1014.52
2018-09-09T05:21:24.271Z,1014.55
2018-09-09T05:22:24.279Z,1014.51
2018-09-09T05:24:16.208Z,1014.52
2018-09-09T05:25:16.204Z,1014.55
2018-09-09T05:27:08.629Z,1014.58
2018-09-09T05:28:08.643Z,1014.57
2018-09-09T05:30:00.595Z,1014.53
2018-09-09T05:31:00.569Z,1014.54
2018-09-09T05:32:52.513Z,1014.56
2018-09-09T05:33:52.504Z,1014.56
2018-09-09T05:35:44.416Z,1014.54
2018-09-09T05:36:44.433Z,1014.54
2018-09-09T05:38:36.388Z,1014.55
2018-09-09T05:39:36.373Z,1014.55
2018-09-09T05:41:28.288Z,1014.50
2018-09-09T05:42:28.332Z,1014.55
2018-09-09T05:44:20.238Z,1014.59
2018-09-09T05:45:20.228Z,1014.63
2018-09-09T05:47:12.147Z,1014.63
2018-09-09T05:48:12.164Z,1014.63
2018-09-09T05:50:04.103Z,1014.66
2018-09-09T05:51:04.093Z,1014.64
2018-09-09T05:52:56.046Z,1014.74
2018-09-09T05:53:56.082Z,1014.68
2018-09-09T05:55:47.941Z,1014.69
2018-09-09T05:56:47.955Z,1014.71
2018-09-09T05:58:39.888Z,1014.79
2018-09-09T05:59:39.886Z,1014.79
2018-09-09T06:01:31.844Z,1014.79
2018-09-09T06:02:31.813Z,1014.75
2018-09-09T06:04:23.767Z,1014.78
2018-09-09T06:05:23.749Z,1014.75
2018-09-09T06:07:15.660Z,1014.72
2018-09-09T06:08:15.679Z,1014.70
2018-09-09T06:10:07.616Z,1014.82
2018-09-09T06:11:07.603Z,1014.81
2018-09-09T06:12:59.526Z,1014.82
2018-09-09T06:13:59.538Z,1014.82
2018-09-09T06:15:51.475Z,1014.83
2018-09-09T06:16:51.467Z,1014.75
2018-09-09T06:18:43.410Z,1014.83
2018-09-09T06:19:43.399Z,1014.87
2018-09-09T06:21:35.821Z,1014.86
2018-09-09T06:22:35.829Z,1014.88
2018-09-09T06:24:27.761Z,1014.80
2018-09-09T06:25:27.764Z,1014.87
2018-09-09T06:27:19.671Z,1014.84
2018-09-09T06:28:19.744Z,1014.89
2018-09-09T06:30:11.624Z,1014.91
2018-09-09T06:31:11.621Z,1014.90
2018-09-09T06:33:03.540Z,1014.92
2018-09-09T06:34:03.601Z,1014.92
2018-09-09T06:35:55.496Z,1014.89
2018-09-09T06:36:55.490Z,1014.90
2018-09-09T06:38:47.428Z,1014.86
2018-09-09T06:39:47.421Z,1014.89
2018-09-09T06:41:39.353Z,1014.96
2018-09-09T06:42:39.360Z,1014.93
2018-09-09T06:44:31.291Z,1014.96
2018-09-09T06:45:31.288Z,1014.97
2018-09-09T06:47:23.310Z,1015.02
2018-09-09T06:48:23.239Z,1015.08
2018-09-09T06:50:15.179Z,1015.02
2018-09-09T06:51:15.225Z,1015.04
2018-09-09T06:53:07.086Z,1015.02
2018-09-09T06:54:07.095Z,1015.04
2018-09-09T06:55:59.037Z,1015.10
2018-09-09T06:56:59.030Z,1015.08
2018-09-09T06:58:50.973Z,1015.05
2018-09-09T06:59:50.965Z,1015.07
2018-09-09T07:01:42.887Z,1014.99
2018-09-09T07:02:42.896Z,1015.06
2018-09-09T07:04:34.840Z,1015.04
2018-09-09T07:05:34.831Z,1015.02
2018-09-09T07:07:26.753Z,1015.07
2018-09-09T07:08:26.768Z,1015.02
2018-09-09T07:10:18.715Z,1015.04
2018-09-09T07:11:18.846Z,1015.02
2018-09-09T07:13:10.630Z,1015.01
2018-09-09T07:14:10.644Z,1015.04
2018-09-09T07:16:02.592Z,1015.07
2018-09-09T07:17:02.605Z,1015.04
2018-09-09T07:18:54.514Z,1015.10
2018-09-09T07:19:54.510Z,1015.11
2018-09-09T07:21:46.430Z,1015.12
2018-09-09T07:22:46.525Z,1015.15
2018-09-09T07:24:38.381Z,1015.12
2018-09-09T07:25:38.377Z,1015.06
2018-09-09T07:27:30.303Z,1015.10
2018-09-09T07:28:30.337Z,1015.12
2018-09-09T07:30:22.263Z,1015.12
2018-09-09T07:31:22.253Z,1015.10
2018-09-09T07:33:14.187Z,1015.14
2018-09-09T07:34:14.240Z,1015.22
2018-09-09T07:36:06.138Z,1015.15
2018-09-09T07:37:06.131Z,1015.18
2018-09-09T07:38:58.074Z,1015.20
2018-09-09T07:39:58.063Z,1015.20
2018-09-09T07:41:49.987Z,1015.22
2018-09-09T07:42:50.010Z,1015.25
2018-09-09T07:44:41.952Z,1015.29
2018-09-09T07:45:41.943Z,1015.26
2018-09-09T07:47:33.867Z,1015.29
2018-09-09T07:48:33.881Z,1015.26
2018-09-09T07:50:25.830Z,1015.31
2018-09-09T07:51:25.825Z,1015.29
2018-09-09T07:53:17.759Z,1015.26
2018-09-09T07:54:17.780Z,1015.26
2018-09-09T07:56:09.721Z,1015.26
2018-09-09T07:57:09.717Z,1015.28
2018-09-09T07:59:01.640Z,1015.22
2018-09-09T08:00:01.662Z,1015.27
2018-09-09T08:01:53.593Z,1015.27
2018-09-09T08:02:53.592Z,1015.24
2018-09-09T08:04:45.529Z,1015.24
2018-09-09T08:05:45.527Z,1015.29
2018-09-09T08:07:37.455Z,1015.25
2018-09-09T08:08:37.463Z,1015.30
2018-09-09T08:10:29.404Z,1015.33
2018-09-09T08:11:29.395Z,1015.36
2018-09-09T08:13:21.327Z,1015.33
2018-09-09T08:14:21.346Z,1015.32
2018-09-09T08:16:13.277Z,1015.31
2018-09-09T08:17:13.272Z,1015.36
2018-09-09T08:19:05.199Z,1015.38
2018-09-09T08:20:05.215Z,1015.38
2018-09-09T08:21:57.155Z,1015.42
2018-09-09T08:22:57.153Z,1015.41
2018-09-09T08:24:49.099Z,1015.43
2018-09-09T08:25:49.095Z,1015.47
2018-09-09T08:27:41.011Z,1015.51
2018-09-09T08:28:41.031Z,1015.50
2018-09-09T08:30:32.982Z,1015.47
2018-09-09T08:31:32.967Z,1015.48
2018-09-09T08:33:24.891Z,1015.45
2018-09-09T08:34:24.912Z,1015.41
2018-09-09T08:36:16.856Z,1015.41
2018-09-09T08:37:16.851Z,1015.43
2018-09-09T08:39:08.773Z,1015.42
2018-09-09T08:40:08.786Z,1015.41
2018-09-09T08:42:00.729Z,1015.40
2018-09-09T08:43:00.731Z,1015.38
2018-09-09T08:44:52.683Z,1015.39
2018-09-09T08:45:52.680Z,1015.39
2018-09-09T08:47:44.605Z,1015.40
2018-09-09T08:48:44.626Z,1015.43
2018-09-09T08:50:36.565Z,1015.44
2018-09-09T08:51:36.559Z,1015.49
2018-09-09T08:53:28.483Z,1015.53
2018-09-09T08:54:28.503Z,1015.56
2018-09-09T08:56:20.445Z,1015.48
2018-09-09T08:57:20.446Z,1015.48
2018-09-09T08:59:12.367Z,1015.49
2018-09-09T09:00:12.380Z,1015.41
2018-09-09T09:02:04.330Z,1015.33
2018-09-09T09:03:04.326Z,1015.41
2018-09-09T09:04:56.279Z,1015.47
2018-09-09T09:05:56.271Z,1015.52
2018-09-09T09:07:48.297Z,1015.55
2018-09-09T09:08:48.231Z,1015.55
2018-09-09T09:10:40.172Z,1015.53
2018-09-09T09:11:40.173Z,1015.55
2018-09-09T09:13:32.102Z,1015.58
2018-09-09T09:14:32.117Z,1015.59
2018-09-09T09:16:24.067Z,1015.61
2018-09-09T09:17:24.059Z,1015.56
2018-09-09T09:19:15.984Z,1015.67
2018-09-09T09:20:16.007Z,1015.72
2018-09-09T09:22:07.950Z,1015.69
2018-09-09T09:23:07.950Z,1015.67
2018-09-09T09:24:59.891Z,1015.68
2018-09-09T09:25:59.888Z,1015.68
2018-09-09T09:27:51.813Z,1015.66
2018-09-09T09:28:51.831Z,1015.69
2018-09-09T09:30:43.798Z,1015.62
2018-09-09T09:31:43.779Z,1015.61
2018-09-09T09:33:35.705Z,1015.54
2018-09-09T09:34:35.717Z,1015.54
2018-09-09T09:36:27.667Z,1015.55
2018-09-09T09:37:27.664Z,1015.52
2018-09-09T09:39:19.620Z,1015.49
2018-09-09T09:40:19.603Z,1015.52
2018-09-09T09:42:11.549Z,1015.46
2018-09-09T09:43:11.546Z,1015.45
2018-09-09T09:45:03.506Z,1015.47
2018-09-09T09:46:03.493Z,1015.45
2018-09-09T09:47:55.420Z,1015.46
2018-09-09T09:48:55.483Z,1015.43
2018-09-09T09:50:47.383Z,1015.48
2018-09-09T09:51:47.377Z,1015.47
2018-09-09T09:53:39.366Z,1015.49
2018-09-09T09:54:39.320Z,1015.53
2018-09-09T09:56:31.273Z,1015.51
2018-09-09T09:57:31.268Z,1015.50
2018-09-09T09:59:23.192Z,1015.54
2018-09-09T10:00:23.210Z,1015.49
2018-09-09T10:02:15.156Z,1015.46
2018-09-09T10:03:15.154Z,1015.45
2018-09-09T10:05:07.086Z,1015.50
2018-09-09T10:06:07.104Z,1015.45
2018-09-09T10:07:59.050Z,1015.48
2018-09-09T10:08:59.052Z,1015.49
2018-09-09T10:10:50.995Z,1015.47
2018-09-09T10:11:50.988Z,1015.44
2018-09-09T10:13:42.925Z,1015.41
2018-09-09T10:14:42.926Z,1015.40
2018-09-09T10:16:34.883Z,1015.40
2018-09-09T10:17:34.873Z,1015.36
2018-09-09T10:19:26.799Z,1015.36
2018-09-09T10:20:26.818Z,1015.38
2018-09-09T10:22:18.759Z,1015.36
2018-09-09T10:23:18.757Z,1015.41
2018-09-09T10:25:10.713Z,1015.49
2018-09-09T10:26:10.709Z,1015.53
2018-09-09T10:27:10.731Z,1015.50
2018-09-09T10:28:10.750Z,1015.50
2018-09-09T10:29:10.779Z,1015.44
2018-09-09T10:30:10.833Z,1015.43
2018-09-09T10:31:10.822Z,1015.41
2018-09-09T10:32:10.844Z,1015.45
2018-09-09T10:33:10.869Z,1015.41
2018-09-09T10:34:10.894Z,1015.41
2018-09-09T10:35:10.920Z,1015.30
2018-09-09T10:36:10.934Z,1015.38
2018-09-09T10:37:10.959Z,1015.40
2018-09-09T10:38:10.985Z,1015.44
2018-09-09T10:39:11.005Z,1015.43
2018-09-09T10:40:11.033Z,1015.42
2018-09-09T10:41:11.052Z,1015.46
2018-09-09T10:42:11.075Z,1015.46
2018-09-09T10:43:11.103Z,1015.49
2018-09-09T10:44:11.124Z,1015.46
2018-09-09T10:45:11.147Z,1015.55
2018-09-09T10:46:11.184Z,1015.57
2018-09-09T10:47:11.281Z,1015.53
2018-09-09T10:48:11.216Z,1015.48
2018-09-09T10:49:11.249Z,1015.53
2018-09-09T10:50:11.269Z,1015.56
2018-09-09T10:51:11.292Z,1015.53
2018-09-09T10:52:11.312Z,1015.53
2018-09-09T10:53:11.352Z,1015.52
2018-09-09T10:54:11.355Z,1015.51
2018-09-09T10:55:11.380Z,1015.47
2018-09-09T10:56:11.400Z,1015.50
2018-09-09T10:57:11.429Z,1015.45
2018-09-09T10:58:11.452Z,1015.51
2018-09-09T10:59:11.471Z,1015.46
2018-09-09T11:00:11.501Z,1015.47
2018-09-09T11:01:11.521Z,1015.45
2018-09-09T11:02:11.546Z,1015.43
2018-09-09T11:03:11.568Z,1015.45
2018-09-09T11:04:11.597Z,1015.45
2018-09-09T11:05:11.613Z,1015.48
2018-09-09T11:06:11.637Z,1015.47
2018-09-09T11:07:11.661Z,1015.40
2018-09-09T11:08:11.685Z,1015.40
2018-09-09T11:09:11.709Z,1015.40
2018-09-09T11:10:11.735Z,1015.42
2018-09-09T11:11:11.754Z,1015.40
2018-09-09T11:12:11.778Z,1015.40
2018-09-09T11:13:11.799Z,1015.41
2018-09-09T11:14:11.823Z,1015.38
2018-09-09T11:15:11.856Z,1015.40
2018-09-09T11:16:11.876Z,1015.43
2018-09-09T11:17:11.899Z,1015.43
2018-09-09T11:18:11.921Z,1015.48
2018-09-09T11:19:11.945Z,1015.50
2018-09-09T11:20:11.970Z,1015.50
2018-09-09T11:21:11.995Z,1015.54
2018-09-09T11:22:12.014Z,1015.54
2018-09-09T11:23:12.038Z,1015.53
2018-09-09T11:24:12.071Z,1015.46
2018-09-09T11:25:12.082Z,1015.46
2018-09-09T11:26:12.104Z,1015.39
2018-09-09T11:27:12.131Z,1015.40
2018-09-09T11:28:12.162Z,1015.40
2018-09-09T11:29:12.176Z,1015.48
2018-09-09T11:30:12.202Z,1015.52
2018-09-09T11:31:12.229Z,1015.51
2018-09-09T11:32:12.257Z,1015.53
2018-09-09T11:33:12.274Z,1015.47
2018-09-09T11:34:12.298Z,1015.50
2018-09-09T11:35:12.322Z,1015.51
2018-09-09T11:36:12.353Z,1015.44
2018-09-09T11:37:12.368Z,1015.46
2018-09-09T11:38:12.397Z,1015.49
2018-09-09T11:39:12.415Z,1015.42
2018-09-09T11:40:12.440Z,1015.41
2018-09-09T11:41:12.466Z,1015.40
2018-09-09T11:42:12.491Z,1015.32
2018-09-09T11:43:12.510Z,1015.35
2018-09-09T11:44:12.542Z,1015.36
2018-09-09T11:45:12.562Z,1015.38
2018-09-09T11:46:12.589Z,1015.32
2018-09-09T11:47:12.612Z,1015.37
2018-09-09T11:48:12.631Z,1015.30
2018-09-09T11:49:12.656Z,1015.35
2018-09-09T11:50:12.679Z,1015.30
2018-09-09T11:51:12.706Z,1015.34
2018-09-09T11:52:12.732Z,1015.33
2018-09-09T11:53:12.780Z,1015.30
2018-09-09T11:54:12.775Z,1015.32
2018-09-09T11:55:12.800Z,1015.28
2018-09-09T11:56:12.824Z,1015.26
2018-09-09T11:57:12.847Z,1015.23
2018-09-09T11:58:12.872Z,1015.22
2018-09-09T11:59:12.899Z,1015.19
2018-09-09T12:00:12.921Z,1015.18
2018-09-09T12:01:12.944Z,1015.16
2018-09-09T12:02:12.972Z,1015.16
2018-09-09T12:03:12.991Z,1015.19
2018-09-09T12:04:13.021Z,1015.17
2018-09-09T12:05:13.041Z,1015.19
2018-09-09T12:06:13.063Z,1015.14
2018-09-09T12:07:13.090Z,1015.12
2018-09-09T12:08:13.112Z,1015.13
2018-09-09T12:09:13.139Z,1015.14
2018-09-09T12:10:13.166Z,1015.14
2018-09-09T12:11:13.186Z,1015.14
2018-09-09T12:12:13.208Z,1015.10
2018-09-09T12:13:13.235Z,1015.11
2018-09-09T12:14:13.262Z,1015.13
2018-09-09T12:15:13.284Z,1015.16
2018-09-09T12:16:13.304Z,1015.14
2018-09-09T12:17:13.334Z,1015.15
2018-09-09T12:18:13.356Z,1015.13
2018-09-09T12:19:13.380Z,1015.14
2018-09-09T12:20:13.404Z,1015.14
2018-09-09T12:21:13.423Z,1015.11
2018-09-09T12:22:13.449Z,1015.09
2018-09-09T12:23:13.473Z,1015.08
2018-09-09T12:24:13.500Z,1015.07
2018-09-09T12:25:13.520Z,1015.03
2018-09-09T12:26:13.546Z,1015.03
2018-09-09T12:27:13.570Z,1015.05
2018-09-09T12:28:13.596Z,1015.01
2018-09-09T12:29:13.621Z,1015.02
2018-09-09T12:30:13.642Z,1015.02
2018-09-09T12:31:13.664Z,1015.07
2018-09-09T12:32:13.800Z,1015.05
2018-09-09T12:33:13.725Z,1015.01
2018-09-09T12:34:13.744Z,1015.04
2018-09-09T12:35:13.768Z,1015.07
2018-09-09T12:36:13.788Z,1015.11
2018-09-09T12:37:13.811Z,1015.07
2018-09-09T12:38:13.843Z,1015.09
2018-09-09T12:39:13.862Z,1015.10
2018-09-09T12:40:13.894Z,1015.09
2018-09-09T12:41:13.910Z,1015.07
2018-09-09T12:42:13.935Z,1015.08
2018-09-09T12:43:13.959Z,1015.10
2018-09-09T12:44:13.983Z,1015.07
2018-09-09T12:45:14.006Z,1015.01
2018-09-09T12:46:14.037Z,1015.05
2018-09-09T12:47:14.087Z,1015.06
2018-09-09T12:48:14.084Z,1015.06
2018-09-09T12:49:14.106Z,1015.09
2018-09-09T12:50:14.129Z,1015.06
2018-09-09T12:51:14.154Z,1015.13
2018-09-09T12:52:14.177Z,1015.10
2018-09-09T12:53:14.201Z,1015.13
2018-09-09T12:54:14.226Z,1015.11
2018-09-09T12:55:14.253Z,1015.08
2018-09-09T12:56:14.281Z,1015.08
2018-09-09T12:57:14.302Z,1015.13
2018-09-09T12:58:14.328Z,1015.14
2018-09-09T12:59:14.349Z,1015.10
2018-09-09T13:00:14.388Z,1015.11
2018-09-09T13:01:14.396Z,1015.08
2018-09-09T13:02:14.425Z,1015.15
2018-09-09T13:03:14.444Z,1015.14
2018-09-09T13:04:14.469Z,1015.11
2018-09-09T13:05:14.494Z,1015.10
2018-09-09T13:06:14.520Z,1015.08
2018-09-09T13:07:14.546Z,1015.08
2018-09-09T13:08:14.567Z,1015.13
2018-09-09T13:09:14.590Z,1015.13
2018-09-09T13:10:14.615Z,1015.10
2018-09-09T13:11:14.642Z,1015.07
2018-09-09T13:12:14.661Z,1015.07
2018-09-09T13:13:14.684Z,1015.03
2018-09-09T13:14:14.712Z,1014.98
2018-09-09T13:15:14.732Z,1014.96
2018-09-09T13:16:14.758Z,1014.96
2018-09-09T13:17:14.783Z,1015.00
2018-09-09T13:18:14.806Z,1015.01
2018-09-09T13:19:14.834Z,1015.00
2018-09-09T13:20:14.852Z,1014.99
2018-09-09T13:21:14.875Z,1014.95
2018-09-09T13:22:14.905Z,1014.95
2018-09-09T13:23:14.931Z,1014.92
2018-09-09T13:24:14.950Z,1014.97
2018-09-09T13:25:14.971Z,1014.96
2018-09-09T13:26:15.001Z,1014.98
2018-09-09T13:27:15.023Z,1015.00
2018-09-09T13:28:15.050Z,1015.05
2018-09-09T13:29:15.099Z,1015.00
2018-09-09T13:30:15.091Z,1015.02
2018-09-09T13:31:15.118Z,1014.93
2018-09-09T13:32:15.139Z,1014.96
2018-09-09T13:33:15.171Z,1014.92
2018-09-09T13:34:15.188Z,1014.96
2018-09-09T13:35:15.223Z,1014.93
2018-09-09T13:36:15.241Z,1014.90
2018-09-09T13:37:15.264Z,1014.90
2018-09-09T13:38:15.294Z,1014.96
2018-09-09T13:39:15.312Z,1014.95
2018-09-09T13:40:15.335Z,1014.98
2018-09-09T13:41:15.359Z,1014.91
2018-09-09T13:42:15.383Z,1014.88
2018-09-09T13:43:15.407Z,1014.85
2018-09-09T13:44:15.435Z,1014.87
2018-09-09T13:45:15.455Z,1014.86
2018-09-09T13:46:15.484Z,1014.85
2018-09-09T13:47:15.505Z,1014.88
2018-09-09T13:48:15.602Z,1014.95
2018-09-09T13:49:15.552Z,1014.87
2018-09-09T13:50:15.576Z,1014.94
2018-09-09T13:51:15.599Z,1014.92
2018-09-09T13:52:15.625Z,1014.98
2018-09-09T13:53:15.648Z,1014.93
2018-09-09T13:54:15.675Z,1014.95
2018-09-09T13:55:15.697Z,1014.90
2018-09-09T13:56:15.724Z,1014.92
2018-09-09T13:57:15.744Z,1014.98
2018-09-09T13:58:15.808Z,1015.01
2018-09-09T13:59:15.796Z,1014.95
2018-09-09T14:00:15.821Z,1014.98
2018-09-09T14:01:15.843Z,1014.97
2018-09-09T14:02:15.865Z,1015.00
2018-09-09T14:03:15.889Z,1014.99
2018-09-09T14:04:15.916Z,1014.98
2018-09-09T14:05:15.941Z,1014.98
2018-09-09T14:06:15.963Z,1014.96
2018-09-09T14:07:15.985Z,1014.96
2018-09-09T14:08:16.014Z,1014.94
2018-09-09T14:09:16.038Z,1014.94
2018-09-09T14:10:16.061Z,1014.95
2018-09-09T14:11:16.085Z,1014.89
2018-09-09T14:12:16.113Z,1014.90
2018-09-09T14:13:16.151Z,1014.90
2018-09-09T14:14:16.152Z,1014.91
2018-09-09T14:15:16.196Z,1014.91
2018-09-09T14:16:16.211Z,1014.91
2018-09-09T14:17:16.225Z,1014.92
2018-09-09T14:18:16.255Z,1014.91
2018-09-09T14:19:16.272Z,1014.90
2018-09-09T14:20:16.301Z,1014.87
2018-09-09T14:21:16.324Z,1014.86
2018-09-09T14:22:16.435Z,1014.88
2018-09-09T14:23:16.370Z,1014.87
2018-09-09T14:24:16.398Z,1014.83
2018-09-09T14:25:16.422Z,1014.81
2018-09-09T14:26:16.449Z,1014.81
2018-09-09T14:27:16.469Z,1014.79
2018-09-09T14:28:16.497Z,1014.81
2018-09-09T14:29:16.587Z,1014.77
2018-09-09T14:30:16.548Z,1014.79
2018-09-09T14:31:16.565Z,1014.79
2018-09-09T14:32:16.590Z,1014.73
2018-09-09T14:33:16.612Z,1014.72
2018-09-09T14:34:16.692Z,1014.73
2018-09-09T14:35:16.666Z,1014.70
2018-09-09T14:36:16.688Z,1014.73
2018-09-09T14:37:16.715Z,1014.73
2018-09-09T14:38:16.734Z,1014.74